Terminal Aerodrome Forecast
Issued by NWS Sioux Falls, SD

Home | Current Version | Previous Version | Text Only | Print | Product List | Glossary On
Versions: 1 2 3 4 5 6 7 8 9 10 11 12 13
000
FTUS43 KFSD 070012 AAB
TAFFSD
TAF AMD
KFSD 070012Z 0700/0724 28006KT P6SM SCT080 BKN250
     FM070100 35015G22KT P6SM BKN080
     FM070300 02014G20KT P6SM VCTS BKN080CB
     FM070900 04013KT P6SM BKN150
     FM071700 07012KT P6SM BKN200=

USA.gov is the U.S. government's official web portal to all federal, state and local government web resources and services.